PIA752 EKCH-OPLA
Flight info
| Callsign | PIA752 |
|---|---|
| Flight time | N/A |
| Altitude | 35000 |
| Route | SIMEG DCT RUMAR L983 RANOK/K0841F350 B120 KRD A926 LAKOD/N0454F350 DCT BADUS/K0841F350 L748 BUGOR L749 RONUM/K0843F370 N72 WGD A927 SL/K0850F360 A964 NOKLI/K0850F370 N72 DUBOS W87 ZG G242 BABUR N193 AKT Q161 TIROM/N0457F370 A845 RINAT/N0455F390 A845 DAVET P173 TAPIS L509 INDEK T400 AKBER |
| Aircraft | B772/M-SDE1FGHILORVWXY/HB1 |
Departure
| Time | 2026-05-04 13:02 |
|---|---|
| Airport | Copenhagen Kastrup Airport (EKCH) |
Arrival
| Time | N/A |
|---|---|
| Airport | Allama Iqbal International Airport (OPLA) |
| Time | Latitude | Longitude | Altitude | Speed | Heading |
|---|---|---|---|---|---|
| 2026-05-04 12:37 | 55.62432 | 12.65054 | 26 ft | 0 kts | 269° |
| 2026-05-04 12:49 | 55.62432 | 12.65055 | 26 ft | 2 kts | 269° |
| 2026-05-04 12:49 | 55.62433 | 12.65084 | 30 ft | 2 kts | 268° |
| 2026-05-04 12:49 | 55.62434 | 12.65113 | 29 ft | 2 kts | 265° |
| 2026-05-04 12:50 | 55.62435 | 12.65142 | 30 ft | 2 kts | 261° |
| 2026-05-04 12:50 | 55.62439 | 12.65171 | 29 ft | 2 kts | 250° |
| 2026-05-04 12:50 | 55.62448 | 12.65194 | 31 ft | 2 kts | 203° |
| 2026-05-04 12:50 | 55.62459 | 12.65198 | 31 ft | 1 kts | 178° |
| 2026-05-04 12:51 | 55.62460 | 12.65198 | 29 ft | 0 kts | 177° |
| 2026-05-04 12:51 | 55.62458 | 12.65198 | 31 ft | 2 kts | 177° |
| 2026-05-04 12:51 | 55.62398 | 12.65201 | 26 ft | 11 kts | 178° |
| 2026-05-04 12:51 | 55.62363 | 12.65203 | 27 ft | 0 kts | 178° |
| 2026-05-04 12:55 | 55.62362 | 12.65203 | 26 ft | 1 kts | 178° |
| 2026-05-04 12:55 | 55.62340 | 12.65205 | 26 ft | 4 kts | 178° |
| 2026-05-04 12:55 | 55.62287 | 12.65200 | 27 ft | 10 kts | 183° |
| 2026-05-04 12:56 | 55.62216 | 12.65182 | 26 ft | 11 kts | 202° |
| 2026-05-04 12:56 | 55.62150 | 12.65109 | 26 ft | 12 kts | 213° |
| 2026-05-04 12:56 | 55.62081 | 12.65029 | 26 ft | 12 kts | 213° |
| 2026-05-04 12:56 | 55.62007 | 12.64944 | 28 ft | 13 kts | 213° |
| 2026-05-04 12:57 | 55.61925 | 12.64851 | 27 ft | 14 kts | 213° |
| 2026-05-04 12:57 | 55.61816 | 12.64725 | 27 ft | 22 kts | 212° |
| 2026-05-04 12:57 | 55.61690 | 12.64579 | 29 ft | 14 kts | 214° |
| 2026-05-04 12:57 | 55.61656 | 12.64478 | 30 ft | 0 kts | 265° |
| 2026-05-04 12:58 | 55.61656 | 12.64474 | 30 ft | 4 kts | 267° |
| 2026-05-04 12:58 | 55.61651 | 12.64337 | 26 ft | 7 kts | 266° |
| 2026-05-04 12:58 | 55.61651 | 12.64335 | 26 ft | 0 kts | 266° |
| 2026-05-04 13:00 | 55.61649 | 12.64290 | 27 ft | 9 kts | 266° |
| 2026-05-04 13:00 | 55.61645 | 12.64171 | 28 ft | 9 kts | 266° |
| 2026-05-04 13:00 | 55.61627 | 12.64072 | 30 ft | 8 kts | 227° |
| 2026-05-04 13:00 | 55.61611 | 12.64047 | 29 ft | 0 kts | 220° |
| 2026-05-04 13:01 | 55.61512 | 12.63892 | 28 ft | 55 kts | 221° |
| 2026-05-04 13:01 | 55.61044 | 12.63168 | 29 ft | 124 kts | 221° |
| 2026-05-04 13:01 | 55.60257 | 12.61944 | 92 ft | 172 kts | 226° |
| 2026-05-04 13:02 | 55.59264 | 12.60407 | 427 ft | 209 kts | 225° |
| 2026-05-04 13:02 | 55.58113 | 12.58634 | 1042 ft | 212 kts | 224° |
| 2026-05-04 13:02 | 55.57079 | 12.57061 | 1371 ft | 189 kts | 224° |
| 2026-05-04 13:02 | 55.55971 | 12.55647 | 1942 ft | 206 kts | 213° |
| 2026-05-04 13:03 | 55.54550 | 12.54815 | 2558 ft | 229 kts | 185° |
| 2026-05-04 13:03 | 55.52935 | 12.55533 | 3113 ft | 256 kts | 150° |
| 2026-05-04 13:03 | 55.51712 | 12.57940 | 3685 ft | 277 kts | 116° |
| 2026-05-04 13:03 | 55.50927 | 12.61110 | 4486 ft | 283 kts | 119° |
| 2026-05-04 13:04 | 55.50022 | 12.64216 | 5409 ft | 288 kts | 119° |
| 2026-05-04 13:04 | 55.49100 | 12.67388 | 6287 ft | 292 kts | 119° |
| 2026-05-04 13:04 | 55.48169 | 12.70612 | 7061 ft | 298 kts | 119° |
| 2026-05-04 13:04 | 55.47235 | 12.73854 | 7870 ft | 301 kts | 120° |
| 2026-05-04 13:05 | 55.46279 | 12.77169 | 8662 ft | 306 kts | 120° |
| 2026-05-04 13:05 | 55.45314 | 12.80523 | 9462 ft | 310 kts | 120° |
| 2026-05-04 13:05 | 55.44329 | 12.83941 | 10193 ft | 315 kts | 120° |
| 2026-05-04 13:05 | 55.43302 | 12.87475 | 10569 ft | 334 kts | 121° |
| 2026-05-04 13:06 | 55.42199 | 12.91234 | 10831 ft | 354 kts | 121° |
| 2026-05-04 13:06 | 55.41040 | 12.95180 | 11081 ft | 374 kts | 120° |
| 2026-05-04 13:06 | 55.39817 | 12.99342 | 11395 ft | 391 kts | 120° |
| 2026-05-04 13:06 | 55.38553 | 13.03656 | 11822 ft | 402 kts | 120° |
| 2026-05-04 13:07 | 55.37272 | 13.08056 | 12515 ft | 405 kts | 120° |
| 2026-05-04 13:07 | 55.35983 | 13.12499 | 13135 ft | 410 kts | 120° |
| 2026-05-04 13:07 | 55.34683 | 13.16977 | 13781 ft | 413 kts | 120° |
| 2026-05-04 13:07 | 55.33368 | 13.21499 | 14336 ft | 417 kts | 120° |
| 2026-05-04 13:08 | 55.32058 | 13.25999 | 14875 ft | 421 kts | 120° |
| 2026-05-04 13:08 | 55.30721 | 13.30585 | 15431 ft | 424 kts | 120° |
| 2026-05-04 13:08 | 55.29370 | 13.35209 | 15974 ft | 427 kts | 121° |
| 2026-05-04 13:08 | 55.28005 | 13.39873 | 16505 ft | 431 kts | 121° |
| 2026-05-04 13:09 | 55.26628 | 13.44568 | 17045 ft | 434 kts | 121° |
| 2026-05-04 13:09 | 55.25371 | 13.49402 | 17545 ft | 441 kts | 110° |
| 2026-05-04 13:09 | 55.24760 | 13.54699 | 18106 ft | 446 kts | 101° |
| 2026-05-04 13:09 | 55.24307 | 13.60126 | 18509 ft | 451 kts | 100° |
| 2026-05-04 13:10 | 55.23872 | 13.65603 | 18957 ft | 454 kts | 100° |
| 2026-05-04 13:10 | 55.23448 | 13.71110 | 19382 ft | 458 kts | 100° |
| 2026-05-04 13:10 | 55.23025 | 13.76669 | 19804 ft | 461 kts | 100° |
| 2026-05-04 13:10 | 55.22601 | 13.82250 | 20209 ft | 465 kts | 100° |
| 2026-05-04 13:11 | 55.22171 | 13.87896 | 20613 ft | 468 kts | 100° |
| 2026-05-04 13:11 | 55.21741 | 13.93502 | 21011 ft | 472 kts | 101° |
| 2026-05-04 13:11 | 55.21299 | 13.99218 | 21399 ft | 475 kts | 101° |
| 2026-05-04 13:11 | 55.20853 | 14.04965 | 21803 ft | 478 kts | 101° |
| 2026-05-04 13:12 | 55.20443 | 14.10210 | 22156 ft | 481 kts | 101° |
| 2026-05-04 13:12 | 55.19985 | 14.16041 | 22529 ft | 485 kts | 101° |
| 2026-05-04 13:12 | 55.19520 | 14.21910 | 22920 ft | 488 kts | 101° |
| 2026-05-04 13:12 | 55.19050 | 14.27815 | 23287 ft | 491 kts | 101° |
| 2026-05-04 13:13 | 55.18574 | 14.33758 | 23639 ft | 494 kts | 102° |
| 2026-05-04 13:13 | 55.18093 | 14.39729 | 23964 ft | 497 kts | 102° |
| 2026-05-04 13:13 | 55.17607 | 14.45725 | 24287 ft | 499 kts | 102° |
| 2026-05-04 13:13 | 55.17115 | 14.51748 | 24606 ft | 502 kts | 102° |
| 2026-05-04 13:14 | 55.16616 | 14.57830 | 24926 ft | 504 kts | 102° |
| 2026-05-04 13:14 | 55.16114 | 14.63895 | 25230 ft | 506 kts | 102° |
| 2026-05-04 13:14 | 55.15604 | 14.70025 | 25541 ft | 508 kts | 102° |
| 2026-05-04 13:14 | 55.15092 | 14.76145 | 25856 ft | 511 kts | 102° |
| 2026-05-04 13:15 | 55.14573 | 14.82305 | 26165 ft | 513 kts | 102° |
| 2026-05-04 13:15 | 55.14055 | 14.88417 | 26461 ft | 515 kts | 102° |
| 2026-05-04 13:15 | 55.13527 | 14.94607 | 26753 ft | 517 kts | 102° |
| 2026-05-04 13:15 | 55.12992 | 15.00844 | 27041 ft | 519 kts | 102° |
| 2026-05-04 13:16 | 55.12454 | 15.07096 | 27315 ft | 521 kts | 102° |
| 2026-05-04 13:16 | 55.11941 | 15.13372 | 27594 ft | 523 kts | 102° |
| 2026-05-04 13:16 | 55.11406 | 15.19678 | 27873 ft | 525 kts | 102° |
| 2026-05-04 13:16 | 55.10851 | 15.25994 | 28196 ft | 525 kts | 102° |
| 2026-05-04 13:17 | 55.10269 | 15.32269 | 28599 ft | 524 kts | 103° |
| 2026-05-04 13:17 | 55.09690 | 15.38555 | 28991 ft | 523 kts | 103° |
| 2026-05-04 13:17 | 55.09123 | 15.44839 | 29379 ft | 522 kts | 103° |
| 2026-05-04 13:17 | 55.08559 | 15.51088 | 29776 ft | 521 kts | 103° |
| 2026-05-04 13:18 | 55.07991 | 15.57340 | 30118 ft | 520 kts | 103° |
| 2026-05-04 13:18 | 55.07424 | 15.63565 | 30442 ft | 519 kts | 103° |
| 2026-05-04 13:18 | 55.06861 | 15.69702 | 30743 ft | 518 kts | 103° |
| 2026-05-04 13:18 | 55.06288 | 15.75907 | 31047 ft | 518 kts | 103° |
| 2026-05-04 13:19 | 55.05714 | 15.82099 | 31339 ft | 517 kts | 103° |
| 2026-05-04 13:19 | 55.05138 | 15.88285 | 31626 ft | 516 kts | 103° |
| 2026-05-04 13:19 | 55.04559 | 15.94478 | 31907 ft | 516 kts | 103° |
| 2026-05-04 13:19 | 55.03979 | 16.00646 | 32186 ft | 515 kts | 103° |
| 2026-05-04 13:20 | 55.03439 | 16.06822 | 32441 ft | 517 kts | 99° |
| 2026-05-04 13:20 | 55.03198 | 16.13078 | 32708 ft | 518 kts | 97° |
| 2026-05-04 13:20 | 55.02989 | 16.19355 | 32940 ft | 518 kts | 97° |
| 2026-05-04 13:20 | 55.02787 | 16.25623 | 33182 ft | 518 kts | 97° |
| 2026-05-04 13:21 | 55.02587 | 16.31903 | 33427 ft | 518 kts | 97° |
| 2026-05-04 13:21 | 55.02385 | 16.38170 | 33660 ft | 518 kts | 97° |
| 2026-05-04 13:21 | 55.02180 | 16.44427 | 33885 ft | 518 kts | 97° |
| 2026-05-04 13:21 | 55.01971 | 16.50705 | 34082 ft | 518 kts | 97° |
| 2026-05-04 13:22 | 55.01760 | 16.56955 | 34309 ft | 516 kts | 97° |
| 2026-05-04 13:22 | 55.01545 | 16.63201 | 34544 ft | 515 kts | 97° |
| 2026-05-04 13:22 | 55.01330 | 16.69408 | 34775 ft | 513 kts | 97° |
| 2026-05-04 13:22 | 55.01111 | 16.75605 | 34925 ft | 513 kts | 97° |
| 2026-05-04 13:23 | 55.00890 | 16.81751 | 34921 ft | 512 kts | 97° |
| 2026-05-04 13:23 | 55.00438 | 16.94093 | 34919 ft | 511 kts | 97° |
| 2026-05-04 13:24 | 54.99974 | 17.06437 | 34914 ft | 511 kts | 97° |
| 2026-05-04 13:24 | 54.99496 | 17.18792 | 34910 ft | 511 kts | 97° |
| 2026-05-04 13:25 | 54.98757 | 17.37311 | 34913 ft | 511 kts | 97° |
| 2026-05-04 13:25 | 54.98248 | 17.49658 | 34911 ft | 511 kts | 97° |
| 2026-05-04 13:26 | 54.97729 | 17.61987 | 34913 ft | 511 kts | 97° |
| 2026-05-04 13:26 | 54.97196 | 17.74304 | 34906 ft | 510 kts | 97° |
| 2026-05-04 13:27 | 54.96655 | 17.86555 | 34911 ft | 510 kts | 97° |
| 2026-05-04 13:27 | 54.96099 | 17.98862 | 34911 ft | 510 kts | 98° |
| 2026-05-04 13:28 | 54.95530 | 18.11172 | 34906 ft | 510 kts | 98° |
| 2026-05-04 13:28 | 54.94948 | 18.23499 | 34905 ft | 510 kts | 98° |
| 2026-05-04 13:29 | 54.94356 | 18.35787 | 34895 ft | 510 kts | 98° |
| 2026-05-04 13:29 | 54.93750 | 18.48081 | 34895 ft | 510 kts | 98° |
| 2026-05-04 13:30 | 54.93132 | 18.60378 | 34897 ft | 510 kts | 98° |
| 2026-05-04 13:30 | 54.92505 | 18.72596 | 34897 ft | 509 kts | 98° |
| 2026-05-04 13:31 | 54.91863 | 18.84874 | 34900 ft | 509 kts | 98° |
| 2026-05-04 13:31 | 54.91306 | 18.97137 | 34894 ft | 510 kts | 93° |
| 2026-05-04 13:32 | 54.91123 | 19.09453 | 34902 ft | 510 kts | 94° |
| 2026-05-04 13:32 | 54.90870 | 19.21763 | 34896 ft | 509 kts | 94° |
| 2026-05-04 13:33 | 54.90602 | 19.34055 | 34901 ft | 509 kts | 94° |
| 2026-05-04 13:33 | 54.90321 | 19.46345 | 34903 ft | 508 kts | 94° |
| 2026-05-04 13:34 | 54.90039 | 19.58598 | 34903 ft | 508 kts | 92° |
| 2026-05-04 13:34 | 54.90014 | 19.70869 | 34907 ft | 507 kts | 92° |
| 2026-05-04 13:35 | 54.89915 | 19.89149 | 34911 ft | 506 kts | 92° |
| 2026-05-04 13:36 | 54.89832 | 20.01394 | 34911 ft | 506 kts | 92° |
| 2026-05-04 13:36 | 54.89737 | 20.13595 | 34909 ft | 505 kts | 93° |
| 2026-05-04 13:37 | 54.89630 | 20.25791 | 34908 ft | 504 kts | 93° |
| 2026-05-04 13:37 | 54.89530 | 20.37965 | 34909 ft | 504 kts | 92° |
| 2026-05-04 13:38 | 54.89424 | 20.50118 | 34910 ft | 503 kts | 93° |
| 2026-05-04 13:38 | 54.89103 | 20.62206 | 34894 ft | 497 kts | 104° |
| 2026-05-04 13:39 | 54.87829 | 20.74014 | 34901 ft | 497 kts | 103° |
| 2026-05-04 13:39 | 54.86566 | 20.85818 | 34907 ft | 496 kts | 103° |
| 2026-05-04 13:40 | 54.85300 | 20.97492 | 34907 ft | 495 kts | 103° |
| 2026-05-04 13:40 | 54.84015 | 21.09220 | 34906 ft | 494 kts | 103° |
| 2026-05-04 13:41 | 54.82723 | 21.20920 | 34905 ft | 494 kts | 104° |
| 2026-05-04 13:41 | 54.81423 | 21.32612 | 34902 ft | 493 kts | 104° |
| 2026-05-04 13:42 | 54.79678 | 21.48135 | 34900 ft | 491 kts | 104° |
| 2026-05-04 13:42 | 54.78358 | 21.59748 | 34901 ft | 491 kts | 104° |
| 2026-05-04 13:43 | 54.77077 | 21.71391 | 34895 ft | 491 kts | 104° |
| 2026-05-04 13:43 | 54.75797 | 21.82996 | 34895 ft | 490 kts | 104° |
| 2026-05-04 13:44 | 54.74509 | 21.94569 | 34891 ft | 490 kts | 104° |
| 2026-05-04 13:44 | 54.73218 | 22.06066 | 34897 ft | 490 kts | 104° |
| 2026-05-04 13:45 | 54.71906 | 22.17633 | 34892 ft | 489 kts | 104° |
| 2026-05-04 13:45 | 54.70585 | 22.29178 | 34885 ft | 489 kts | 104° |
| 2026-05-04 13:46 | 54.69253 | 22.40719 | 34885 ft | 489 kts | 104° |
| 2026-05-04 13:46 | 54.67922 | 22.52151 | 34886 ft | 488 kts | 104° |
| 2026-05-04 13:47 | 54.66570 | 22.63665 | 34881 ft | 488 kts | 104° |
| 2026-05-04 13:47 | 54.65244 | 22.75168 | 34880 ft | 489 kts | 100° |
| 2026-05-04 13:48 | 54.64354 | 22.86813 | 34879 ft | 489 kts | 100° |
| 2026-05-04 13:48 | 54.63402 | 22.98429 | 34874 ft | 488 kts | 101° |
| 2026-05-04 13:49 | 54.62432 | 23.10044 | 34881 ft | 488 kts | 101° |
| 2026-05-04 13:49 | 54.61452 | 23.21626 | 34880 ft | 488 kts | 101° |
| 2026-05-04 13:50 | 54.60461 | 23.33200 | 34873 ft | 487 kts | 101° |
| 2026-05-04 13:50 | 54.59470 | 23.44657 | 34877 ft | 487 kts | 101° |
| 2026-05-04 13:51 | 54.58458 | 23.56205 | 34872 ft | 486 kts | 101° |
| 2026-05-04 13:51 | 54.57438 | 23.67726 | 34870 ft | 486 kts | 101° |
| 2026-05-04 13:52 | 54.55885 | 23.85018 | 34871 ft | 486 kts | 101° |
| 2026-05-04 13:53 | 54.54842 | 23.96482 | 34873 ft | 485 kts | 101° |
| 2026-05-04 13:53 | 54.53784 | 24.07979 | 34871 ft | 485 kts | 101° |
| 2026-05-04 13:54 | 54.52180 | 24.25173 | 34871 ft | 484 kts | 101° |
| 2026-05-04 13:55 | 54.50561 | 24.42246 | 34869 ft | 483 kts | 101° |
| 2026-05-04 13:55 | 54.48913 | 24.59371 | 34869 ft | 483 kts | 102° |
| 2026-05-04 13:56 | 54.47801 | 24.70771 | 34871 ft | 482 kts | 102° |
| 2026-05-04 13:57 | 54.46118 | 24.87822 | 34868 ft | 482 kts | 102° |
| 2026-05-04 13:58 | 54.43845 | 25.10445 | 34864 ft | 481 kts | 102° |
| 2026-05-04 13:58 | 54.42112 | 25.27397 | 34865 ft | 480 kts | 102° |
| 2026-05-04 13:59 | 54.40947 | 25.38682 | 34869 ft | 479 kts | 102° |
| 2026-05-04 14:00 | 54.39186 | 25.55571 | 34872 ft | 479 kts | 102° |
| 2026-05-04 14:00 | 54.36298 | 25.71781 | 34877 ft | 476 kts | 111° |
| 2026-05-04 14:01 | 54.34181 | 25.82533 | 34883 ft | 475 kts | 111° |
| 2026-05-04 14:02 | 54.30997 | 25.98621 | 34884 ft | 475 kts | 111° |
| 2026-05-04 14:02 | 54.28863 | 26.09332 | 34881 ft | 475 kts | 111° |
| 2026-05-04 14:03 | 54.26727 | 26.19999 | 34890 ft | 474 kts | 111° |
| 2026-05-04 14:03 | 54.24578 | 26.30670 | 34887 ft | 474 kts | 111° |
| 2026-05-04 14:04 | 54.21354 | 26.46576 | 34887 ft | 473 kts | 111° |
| 2026-05-04 14:04 | 54.19187 | 26.57193 | 34892 ft | 473 kts | 111° |
| 2026-05-04 14:05 | 54.15925 | 26.73070 | 34892 ft | 472 kts | 111° |
| 2026-05-04 14:06 | 54.13742 | 26.83629 | 34888 ft | 471 kts | 111° |
| 2026-05-04 14:06 | 54.11550 | 26.94166 | 34895 ft | 471 kts | 111° |
| 2026-05-04 14:07 | 54.09350 | 27.04694 | 34894 ft | 471 kts | 111° |
| 2026-05-04 14:07 | 54.07141 | 27.15204 | 34893 ft | 471 kts | 111° |
| 2026-05-04 14:08 | 54.04923 | 27.25700 | 34901 ft | 471 kts | 111° |
| 2026-05-04 14:08 | 54.02697 | 27.36188 | 34903 ft | 471 kts | 111° |
| 2026-05-04 14:09 | 53.99350 | 27.51847 | 34906 ft | 471 kts | 111° |
| 2026-05-04 14:10 | 53.95974 | 27.67526 | 34912 ft | 471 kts | 111° |
| 2026-05-04 14:10 | 53.93713 | 27.77959 | 34908 ft | 471 kts | 111° |
| 2026-05-04 14:11 | 53.91442 | 27.88382 | 34915 ft | 471 kts | 111° |
| 2026-05-04 14:11 | 53.88198 | 28.04072 | 34906 ft | 470 kts | 103° |
| 2026-05-04 14:12 | 53.86774 | 28.14900 | 34912 ft | 471 kts | 103° |
| 2026-05-04 14:13 | 53.84632 | 28.31142 | 34910 ft | 471 kts | 103° |
| 2026-05-04 14:13 | 53.83193 | 28.41961 | 34914 ft | 471 kts | 103° |
| 2026-05-04 14:14 | 53.81749 | 28.52750 | 34918 ft | 470 kts | 103° |
| 2026-05-04 14:14 | 53.79560 | 28.68943 | 34922 ft | 470 kts | 103° |
| 2026-05-04 14:15 | 53.76624 | 28.90385 | 34928 ft | 469 kts | 103° |
| 2026-05-04 14:16 | 53.74390 | 29.06497 | 34928 ft | 469 kts | 103° |
| 2026-05-04 14:17 | 53.72136 | 29.22584 | 34933 ft | 469 kts | 103° |
| 2026-05-04 14:18 | 53.69860 | 29.38655 | 34937 ft | 469 kts | 103° |
| 2026-05-04 14:19 | 53.66800 | 29.60002 | 34940 ft | 469 kts | 104° |
| 2026-05-04 14:19 | 53.65255 | 29.70669 | 34943 ft | 468 kts | 104° |
| 2026-05-04 14:20 | 53.63702 | 29.81318 | 34944 ft | 468 kts | 104° |
| 2026-05-04 14:20 | 53.62136 | 29.91980 | 34950 ft | 468 kts | 104° |
| 2026-05-04 14:21 | 53.59775 | 30.07923 | 34950 ft | 467 kts | 104° |
| 2026-05-04 14:21 | 53.58201 | 30.18466 | 34953 ft | 467 kts | 104° |
| 2026-05-04 14:22 | 53.56608 | 30.29064 | 34954 ft | 467 kts | 104° |
| 2026-05-04 14:22 | 53.55007 | 30.39642 | 34945 ft | 467 kts | 104° |
| 2026-05-04 14:23 | 53.52590 | 30.55489 | 34934 ft | 466 kts | 104° |
| 2026-05-04 14:24 | 53.50971 | 30.66041 | 34930 ft | 466 kts | 104° |
| 2026-05-04 14:24 | 53.49345 | 30.76575 | 34930 ft | 466 kts | 104° |
| 2026-05-04 14:25 | 53.47705 | 30.87087 | 34929 ft | 465 kts | 104° |
| 2026-05-04 14:25 | 53.45248 | 31.02782 | 34931 ft | 465 kts | 104° |
| 2026-05-04 14:26 | 53.43595 | 31.13264 | 34934 ft | 464 kts | 104° |
| 2026-05-04 14:26 | 53.41934 | 31.23726 | 34929 ft | 464 kts | 104° |
| 2026-05-04 14:27 | 53.40265 | 31.34176 | 34930 ft | 464 kts | 104° |
| 2026-05-04 14:27 | 53.38586 | 31.44621 | 34928 ft | 463 kts | 104° |
| 2026-05-04 14:28 | 53.36902 | 31.55034 | 34928 ft | 463 kts | 104° |
| 2026-05-04 14:28 | 53.35495 | 31.63689 | 34927 ft | 463 kts | 104° |
| 2026-05-04 14:29 | 53.32088 | 31.84457 | 34923 ft | 462 kts | 104° |
| 2026-05-04 14:30 | 53.30375 | 31.94806 | 34922 ft | 462 kts | 104° |
| 2026-05-04 14:31 | 53.27789 | 32.10313 | 34924 ft | 461 kts | 104° |
| 2026-05-04 14:32 | 53.24314 | 32.30930 | 34916 ft | 461 kts | 104° |
| 2026-05-04 14:32 | 53.22568 | 32.41221 | 34916 ft | 460 kts | 104° |
| 2026-05-04 14:33 | 53.20914 | 32.51527 | 34922 ft | 460 kts | 103° |
| 2026-05-04 14:33 | 53.19311 | 32.61783 | 34917 ft | 460 kts | 103° |
| 2026-05-04 14:34 | 53.17685 | 32.72084 | 34919 ft | 459 kts | 103° |
| 2026-05-04 14:34 | 53.16050 | 32.82379 | 34918 ft | 459 kts | 103° |
| 2026-05-04 14:35 | 53.14407 | 32.92659 | 34913 ft | 459 kts | 103° |
| 2026-05-04 14:35 | 53.12757 | 33.02918 | 34915 ft | 458 kts | 103° |
| 2026-05-04 14:36 | 53.11102 | 33.13153 | 34918 ft | 458 kts | 104° |
| 2026-05-04 14:36 | 53.09436 | 33.23387 | 34913 ft | 458 kts | 104° |
| 2026-05-04 14:37 | 53.07763 | 33.33606 | 34912 ft | 458 kts | 104° |
| 2026-05-04 14:37 | 53.06082 | 33.43811 | 34916 ft | 458 kts | 104° |
| 2026-05-04 14:38 | 53.04403 | 33.53946 | 34914 ft | 458 kts | 104° |
| 2026-05-04 14:38 | 53.02704 | 33.64138 | 34917 ft | 457 kts | 104° |
| 2026-05-04 14:39 | 53.00995 | 33.74338 | 34915 ft | 457 kts | 104° |
| 2026-05-04 14:39 | 52.99280 | 33.84523 | 34914 ft | 457 kts | 104° |
| 2026-05-04 14:40 | 52.96692 | 33.99745 | 34913 ft | 457 kts | 104° |
| 2026-05-04 14:40 | 52.94956 | 34.09899 | 34917 ft | 457 kts | 104° |
| 2026-05-04 14:41 | 52.93222 | 34.19986 | 34917 ft | 458 kts | 104° |
| 2026-05-04 14:42 | 52.89709 | 34.40239 | 34923 ft | 457 kts | 104° |
| 2026-05-04 14:42 | 52.87939 | 34.50358 | 34925 ft | 457 kts | 104° |
| 2026-05-04 14:43 | 52.86161 | 34.60469 | 34926 ft | 457 kts | 104° |
| 2026-05-04 14:43 | 52.84370 | 34.70582 | 34924 ft | 457 kts | 105° |
| 2026-05-04 14:44 | 52.82574 | 34.80667 | 34931 ft | 457 kts | 105° |
| 2026-05-04 14:44 | 52.80609 | 34.90668 | 34931 ft | 458 kts | 107° |
| 2026-05-04 14:45 | 52.78573 | 35.00642 | 35150 ft | 458 kts | 107° |
| 2026-05-04 14:45 | 52.77554 | 35.05641 | 35400 ft | 457 kts | 107° |
| 2026-05-04 14:45 | 52.76539 | 35.10613 | 35626 ft | 457 kts | 107° |
| 2026-05-04 14:46 | 52.75523 | 35.15571 | 35851 ft | 456 kts | 107° |
| 2026-05-04 14:46 | 52.74507 | 35.20524 | 36071 ft | 455 kts | 107° |
| 2026-05-04 14:46 | 52.73487 | 35.25479 | 36269 ft | 455 kts | 107° |
| 2026-05-04 14:46 | 52.72470 | 35.30410 | 36478 ft | 454 kts | 108° |
| 2026-05-04 14:47 | 52.71449 | 35.35345 | 36664 ft | 453 kts | 108° |
| 2026-05-04 14:47 | 52.70433 | 35.40248 | 36840 ft | 452 kts | 108° |
| 2026-05-04 14:47 | 52.69425 | 35.45100 | 36961 ft | 452 kts | 108° |
| 2026-05-04 14:47 | 52.68403 | 35.50004 | 36943 ft | 453 kts | 108° |
| 2026-05-04 14:48 | 52.66355 | 35.59797 | 36943 ft | 452 kts | 108° |
| 2026-05-04 14:48 | 52.64299 | 35.69587 | 36947 ft | 452 kts | 108° |
| 2026-05-04 14:49 | 52.62234 | 35.79366 | 36946 ft | 452 kts | 108° |
| 2026-05-04 14:49 | 52.60162 | 35.89133 | 36947 ft | 452 kts | 108° |
| 2026-05-04 14:50 | 52.58079 | 35.98905 | 36947 ft | 452 kts | 108° |
| 2026-05-04 14:50 | 52.55988 | 36.08666 | 36949 ft | 453 kts | 108° |
| 2026-05-04 14:51 | 52.53888 | 36.18424 | 36956 ft | 453 kts | 108° |
| 2026-05-04 14:51 | 52.51780 | 36.28173 | 36955 ft | 453 kts | 108° |
| 2026-05-04 14:52 | 52.49676 | 36.37854 | 36959 ft | 453 kts | 108° |
| 2026-05-04 14:52 | 52.47550 | 36.47594 | 36956 ft | 453 kts | 109° |
| 2026-05-04 14:53 | 52.45417 | 36.57314 | 36958 ft | 453 kts | 109° |
| 2026-05-04 14:53 | 52.43278 | 36.67024 | 36955 ft | 453 kts | 109° |
| 2026-05-04 14:54 | 52.41126 | 36.76740 | 36957 ft | 453 kts | 109° |
| 2026-05-04 14:54 | 52.38967 | 36.86445 | 36959 ft | 453 kts | 109° |
| 2026-05-04 14:55 | 52.36799 | 36.96146 | 36959 ft | 454 kts | 109° |
| 2026-05-04 14:55 | 52.34624 | 37.05836 | 36957 ft | 454 kts | 109° |
| 2026-05-04 14:56 | 52.32441 | 37.15516 | 36959 ft | 454 kts | 109° |
| 2026-05-04 14:56 | 52.30246 | 37.25198 | 36961 ft | 454 kts | 109° |
| 2026-05-04 14:57 | 52.28045 | 37.34867 | 36963 ft | 454 kts | 109° |
| 2026-05-04 14:57 | 52.25833 | 37.44540 | 36958 ft | 455 kts | 109° |
| 2026-05-04 14:58 | 52.23628 | 37.54139 | 36955 ft | 455 kts | 109° |
| 2026-05-04 14:58 | 52.21385 | 37.63858 | 36960 ft | 455 kts | 109° |
| 2026-05-04 14:59 | 52.19159 | 37.73458 | 36961 ft | 455 kts | 109° |
| 2026-05-04 15:00 | 52.15790 | 37.87911 | 36963 ft | 455 kts | 110° |
| 2026-05-04 15:00 | 52.13530 | 37.97547 | 36966 ft | 455 kts | 110° |
| 2026-05-04 15:01 | 52.10122 | 38.12006 | 36970 ft | 456 kts | 110° |
| 2026-05-04 15:01 | 52.07854 | 38.21569 | 36960 ft | 456 kts | 110° |
| 2026-05-04 15:02 | 52.05551 | 38.31239 | 36972 ft | 456 kts | 110° |
| 2026-05-04 15:02 | 52.03269 | 38.40782 | 36981 ft | 456 kts | 110° |
| 2026-05-04 15:03 | 52.00960 | 38.50392 | 36972 ft | 456 kts | 110° |
| 2026-05-04 15:03 | 51.98645 | 38.59983 | 36976 ft | 456 kts | 110° |
| 2026-05-04 15:04 | 51.96322 | 38.69568 | 36975 ft | 456 kts | 110° |
| 2026-05-04 15:04 | 51.93993 | 38.79135 | 36982 ft | 456 kts | 111° |
| 2026-05-04 15:05 | 51.91655 | 38.88697 | 36991 ft | 456 kts | 111° |
| 2026-05-04 15:05 | 51.89307 | 38.98257 | 36991 ft | 456 kts | 111° |
| 2026-05-04 15:06 | 51.86967 | 39.07747 | 36995 ft | 457 kts | 111° |
| 2026-05-04 15:07 | 51.83403 | 39.22118 | 36993 ft | 457 kts | 111° |
| 2026-05-04 15:07 | 51.81045 | 39.31577 | 36965 ft | 457 kts | 111° |
| 2026-05-04 15:08 | 51.78659 | 39.41103 | 36969 ft | 457 kts | 111° |
| 2026-05-04 15:08 | 51.76269 | 39.50607 | 36974 ft | 457 kts | 112° |
| 2026-05-04 15:09 | 51.73867 | 39.60121 | 36977 ft | 457 kts | 112° |
| 2026-05-04 15:09 | 51.72387 | 39.64657 | 36971 ft | 456 kts | 125° |
| 2026-05-04 15:09 | 51.70588 | 39.68875 | 36984 ft | 457 kts | 123° |
| 2026-05-04 15:10 | 51.65253 | 39.81645 | 36991 ft | 458 kts | 124° |
| 2026-05-04 15:11 | 51.59886 | 39.94353 | 36994 ft | 458 kts | 124° |
| 2026-05-04 15:11 | 51.56317 | 40.02766 | 36995 ft | 458 kts | 124° |
| 2026-05-04 15:12 | 51.52698 | 40.11272 | 36993 ft | 458 kts | 124° |
| 2026-05-04 15:12 | 51.49099 | 40.19702 | 36995 ft | 458 kts | 124° |
| 2026-05-04 15:13 | 51.45515 | 40.28069 | 36996 ft | 458 kts | 124° |
| 2026-05-04 15:13 | 51.41902 | 40.36476 | 36994 ft | 458 kts | 125° |
| 2026-05-04 15:14 | 51.38288 | 40.44858 | 36997 ft | 458 kts | 125° |
| 2026-05-04 15:14 | 51.35248 | 40.51890 | 36998 ft | 458 kts | 125° |
| 2026-05-04 15:15 | 51.31602 | 40.60148 | 36984 ft | 457 kts | 131° |
| 2026-05-04 15:15 | 51.27280 | 40.67585 | 36994 ft | 457 kts | 133° |
| 2026-05-04 15:16 | 51.20748 | 40.78688 | 36999 ft | 457 kts | 134° |
| 2026-05-04 15:17 | 51.14229 | 40.89701 | 36999 ft | 458 kts | 134° |
| 2026-05-04 15:17 | 51.09821 | 40.97120 | 37306 ft | 458 kts | 134° |
| 2026-05-04 15:17 | 51.07662 | 41.00747 | 37451 ft | 457 kts | 134° |
| 2026-05-04 15:18 | 51.05475 | 41.04413 | 37626 ft | 457 kts | 134° |
| 2026-05-04 15:18 | 51.03286 | 41.08078 | 37757 ft | 457 kts | 134° |
| 2026-05-04 15:18 | 51.01093 | 41.11745 | 37910 ft | 456 kts | 134° |
| 2026-05-04 15:19 | 50.96719 | 41.19042 | 38177 ft | 456 kts | 134° |
| 2026-05-04 15:19 | 50.94527 | 41.22690 | 38299 ft | 455 kts | 134° |
| 2026-05-04 15:19 | 50.90156 | 41.29949 | 38533 ft | 455 kts | 135° |
| 2026-05-04 15:20 | 50.85787 | 41.37185 | 38718 ft | 454 kts | 135° |
| 2026-05-04 15:20 | 50.81444 | 41.44357 | 38888 ft | 452 kts | 135° |
| 2026-05-04 15:21 | 50.79278 | 41.47925 | 39001 ft | 450 kts | 135° |
| 2026-05-04 15:21 | 50.77102 | 41.51506 | 39006 ft | 451 kts | 135° |
| 2026-05-04 15:22 | 50.70547 | 41.62261 | 39002 ft | 454 kts | 135° |
| 2026-05-04 15:22 | 50.63985 | 41.72997 | 39001 ft | 453 kts | 135° |
| 2026-05-04 15:23 | 50.59603 | 41.80144 | 39000 ft | 453 kts | 135° |
| 2026-05-04 15:23 | 50.55220 | 41.87274 | 39000 ft | 453 kts | 135° |
| 2026-05-04 15:24 | 50.46466 | 42.01452 | 38999 ft | 454 kts | 135° |
| 2026-05-04 15:25 | 50.42066 | 42.08547 | 39002 ft | 454 kts | 135° |
| 2026-05-04 15:26 | 50.35416 | 42.19098 | 38995 ft | 452 kts | 141° |
| 2026-05-04 15:26 | 50.28331 | 42.28873 | 39009 ft | 453 kts | 140° |
| 2026-05-04 15:27 | 50.21277 | 42.38709 | 39009 ft | 453 kts | 140° |
| 2026-05-04 15:28 | 50.14249 | 42.48475 | 39009 ft | 453 kts | 140° |
| 2026-05-04 15:29 | 50.07178 | 42.58259 | 39011 ft | 453 kts | 140° |
| 2026-05-04 15:30 | 49.90662 | 42.80959 | 39011 ft | 452 kts | 140° |
| 2026-05-04 15:31 | 49.83603 | 42.90596 | 39012 ft | 453 kts | 140° |
| 2026-05-04 15:32 | 49.71779 | 43.06650 | 39011 ft | 452 kts | 140° |
| 2026-05-04 15:34 | 49.59931 | 43.22627 | 39020 ft | 452 kts | 140° |
| 2026-05-04 15:34 | 49.52820 | 43.32165 | 39027 ft | 451 kts | 140° |
| 2026-05-04 15:35 | 49.45742 | 43.41623 | 39028 ft | 451 kts | 141° |
| 2026-05-04 15:36 | 49.38630 | 43.51086 | 39015 ft | 451 kts | 141° |
| 2026-05-04 15:36 | 49.33893 | 43.57371 | 39019 ft | 450 kts | 141° |
| 2026-05-04 15:37 | 49.29149 | 43.63652 | 39028 ft | 450 kts | 141° |
| 2026-05-04 15:37 | 49.24469 | 43.70033 | 39028 ft | 450 kts | 139° |
| 2026-05-04 15:38 | 49.19856 | 43.76524 | 39026 ft | 450 kts | 139° |
| 2026-05-04 15:38 | 49.15257 | 43.82957 | 39029 ft | 450 kts | 139° |
| 2026-05-04 15:39 | 49.10626 | 43.89416 | 39025 ft | 450 kts | 139° |
| 2026-05-04 15:40 | 49.03685 | 43.99066 | 39025 ft | 450 kts | 139° |
| 2026-05-04 15:40 | 48.99058 | 44.05478 | 39022 ft | 449 kts | 139° |
| 2026-05-04 15:41 | 48.94431 | 44.11873 | 39022 ft | 449 kts | 139° |
| 2026-05-04 15:41 | 48.89800 | 44.18257 | 39021 ft | 449 kts | 139° |
| 2026-05-04 15:42 | 48.85166 | 44.24628 | 39021 ft | 449 kts | 139° |
| 2026-05-04 15:42 | 48.80529 | 44.30989 | 39017 ft | 449 kts | 139° |
| 2026-05-04 15:42 | 48.78319 | 44.34329 | 39004 ft | 450 kts | 128° |
| 2026-05-04 15:43 | 48.76635 | 44.38314 | 39032 ft | 449 kts | 122° |
| 2026-05-04 15:43 | 48.73377 | 44.46423 | 39019 ft | 451 kts | 122° |
| 2026-05-04 15:44 | 48.70168 | 44.54552 | 39023 ft | 453 kts | 122° |
| 2026-05-04 15:44 | 48.66938 | 44.62755 | 39020 ft | 453 kts | 122° |
| 2026-05-04 15:45 | 48.63473 | 44.70686 | 39009 ft | 449 kts | 134° |
| 2026-05-04 15:45 | 48.59328 | 44.77760 | 39018 ft | 451 kts | 133° |
| 2026-05-04 15:46 | 48.55166 | 44.84888 | 39020 ft | 452 kts | 133° |
| 2026-05-04 15:46 | 48.51000 | 44.91990 | 39018 ft | 452 kts | 133° |
| 2026-05-04 15:47 | 48.46856 | 44.99033 | 39012 ft | 452 kts | 133° |
| 2026-05-04 15:47 | 48.42678 | 45.06117 | 39009 ft | 452 kts | 134° |
| 2026-05-04 15:48 | 48.38495 | 45.13190 | 39011 ft | 452 kts | 134° |
| 2026-05-04 15:48 | 48.32223 | 45.23759 | 39008 ft | 451 kts | 134° |
| 2026-05-04 15:49 | 48.28039 | 45.30788 | 39005 ft | 450 kts | 134° |
| 2026-05-04 15:49 | 48.23889 | 45.37740 | 39004 ft | 449 kts | 134° |
| 2026-05-04 15:50 | 48.19716 | 45.44711 | 39001 ft | 448 kts | 134° |
| 2026-05-04 15:50 | 48.15550 | 45.51653 | 38999 ft | 448 kts | 134° |
| 2026-05-04 15:51 | 48.11382 | 45.58581 | 38996 ft | 447 kts | 134° |
| 2026-05-04 15:51 | 48.07219 | 45.65481 | 38998 ft | 446 kts | 134° |
| 2026-05-04 15:52 | 48.03059 | 45.72360 | 38994 ft | 446 kts | 135° |
| 2026-05-04 15:52 | 47.98901 | 45.79218 | 38993 ft | 445 kts | 135° |
| 2026-05-04 15:53 | 47.94743 | 45.86056 | 38992 ft | 445 kts | 135° |
| 2026-05-04 15:53 | 47.90578 | 45.92889 | 38992 ft | 444 kts | 135° |
| 2026-05-04 15:54 | 47.86416 | 45.99699 | 38989 ft | 444 kts | 135° |
| 2026-05-04 15:54 | 47.82254 | 46.06490 | 38989 ft | 444 kts | 135° |
| 2026-05-04 15:55 | 47.78115 | 46.13230 | 38995 ft | 444 kts | 135° |
| 2026-05-04 15:55 | 47.73951 | 46.19991 | 38996 ft | 443 kts | 135° |
| 2026-05-04 15:56 | 47.69782 | 46.26744 | 38986 ft | 443 kts | 135° |
| 2026-05-04 15:56 | 47.65616 | 46.33474 | 38986 ft | 443 kts | 135° |
| 2026-05-04 15:57 | 47.61444 | 46.40196 | 38984 ft | 443 kts | 135° |
| 2026-05-04 15:57 | 47.57270 | 46.46904 | 38983 ft | 443 kts | 135° |
| 2026-05-04 15:58 | 47.53087 | 46.53612 | 38979 ft | 443 kts | 135° |
| 2026-05-04 15:58 | 47.48906 | 46.60299 | 38975 ft | 443 kts | 135° |
| 2026-05-04 15:59 | 47.44721 | 46.66974 | 38981 ft | 443 kts | 135° |
| 2026-05-04 15:59 | 47.40534 | 46.73636 | 38979 ft | 443 kts | 135° |
| 2026-05-04 16:00 | 47.36343 | 46.80290 | 38974 ft | 443 kts | 135° |
| 2026-05-04 16:00 | 47.32172 | 46.86892 | 38977 ft | 443 kts | 135° |
| 2026-05-04 16:01 | 47.27974 | 46.93523 | 38974 ft | 443 kts | 135° |
| 2026-05-04 16:01 | 47.23766 | 47.00152 | 38964 ft | 443 kts | 135° |
| 2026-05-04 16:02 | 47.19554 | 47.06771 | 38967 ft | 443 kts | 136° |
| 2026-05-04 16:03 | 47.13229 | 47.16679 | 38964 ft | 443 kts | 136° |
| 2026-05-04 16:03 | 47.09696 | 47.22198 | 38964 ft | 443 kts | 136° |
| 2026-05-04 16:04 | 47.05478 | 47.28771 | 38964 ft | 443 kts | 136° |
| 2026-05-04 16:04 | 46.99160 | 47.38588 | 38958 ft | 443 kts | 136° |
| 2026-05-04 16:05 | 46.94926 | 47.45144 | 38956 ft | 443 kts | 136° |
| 2026-05-04 16:06 | 46.88570 | 47.54960 | 38950 ft | 443 kts | 136° |
| 2026-05-04 16:07 | 46.80066 | 47.68035 | 38949 ft | 443 kts | 136° |
| 2026-05-04 16:08 | 46.71556 | 47.81055 | 38944 ft | 443 kts | 137° |
| 2026-05-04 16:09 | 46.60919 | 47.97239 | 38928 ft | 443 kts | 137° |
| 2026-05-04 16:10 | 46.52384 | 48.10156 | 38918 ft | 443 kts | 137° |
| 2026-05-04 16:11 | 46.43870 | 48.22979 | 38918 ft | 442 kts | 137° |
| 2026-05-04 16:12 | 46.31040 | 48.42198 | 38912 ft | 442 kts | 138° |
| 2026-05-04 16:13 | 46.22475 | 48.54953 | 38912 ft | 442 kts | 138° |
| 2026-05-04 16:14 | 46.13300 | 48.66378 | 38897 ft | 434 kts | 147° |
| 2026-05-04 16:16 | 46.01136 | 48.79362 | 38907 ft | 437 kts | 147° |
| 2026-05-04 16:17 | 45.88936 | 48.92437 | 38902 ft | 438 kts | 147° |
| 2026-05-04 16:18 | 45.79410 | 49.03382 | 38903 ft | 439 kts | 145° |
| 2026-05-04 16:19 | 45.67489 | 49.17114 | 38900 ft | 440 kts | 145° |
| 2026-05-04 16:20 | 45.55544 | 49.30795 | 38895 ft | 441 kts | 145° |
| 2026-05-04 16:22 | 45.43539 | 49.44469 | 38893 ft | 442 kts | 145° |
| 2026-05-04 16:23 | 45.28930 | 49.60480 | 38892 ft | 442 kts | 147° |
| 2026-05-04 16:25 | 45.14255 | 49.76288 | 38886 ft | 443 kts | 147° |
| 2026-05-04 16:26 | 44.97048 | 49.94690 | 38883 ft | 443 kts | 147° |
| 2026-05-04 16:28 | 44.84760 | 50.07746 | 38883 ft | 443 kts | 147° |
| 2026-05-04 16:29 | 44.67381 | 50.25794 | 38885 ft | 444 kts | 148° |
| 2026-05-04 16:31 | 44.54899 | 50.38536 | 38891 ft | 444 kts | 148° |
| 2026-05-04 16:32 | 44.39924 | 50.53734 | 38882 ft | 444 kts | 148° |
| 2026-05-04 16:33 | 44.29902 | 50.63850 | 38886 ft | 444 kts | 148° |
| 2026-05-04 16:34 | 44.22414 | 50.71381 | 38879 ft | 444 kts | 148° |
| 2026-05-04 16:35 | 44.07357 | 50.86450 | 38907 ft | 441 kts | 148° |
| 2026-05-04 16:36 | 43.99910 | 50.93867 | 38881 ft | 439 kts | 148° |
| 2026-05-04 16:37 | 43.92443 | 51.01283 | 38883 ft | 440 kts | 148° |
| 2026-05-04 16:38 | 43.83184 | 51.12300 | 38873 ft | 445 kts | 138° |
| 2026-05-04 16:39 | 43.72419 | 51.27749 | 38885 ft | 446 kts | 138° |
| 2026-05-04 16:40 | 43.63794 | 51.40083 | 38875 ft | 446 kts | 138° |
| 2026-05-04 16:41 | 43.52984 | 51.55463 | 38862 ft | 447 kts | 138° |
| 2026-05-04 16:43 | 43.42129 | 51.70824 | 38871 ft | 448 kts | 139° |
| 2026-05-04 16:43 | 43.35621 | 51.79995 | 38870 ft | 449 kts | 139° |
| 2026-05-04 16:45 | 43.22359 | 51.98197 | 38871 ft | 450 kts | 140° |
| 2026-05-04 16:46 | 43.11254 | 52.13301 | 38878 ft | 451 kts | 140° |
| 2026-05-04 16:47 | 43.02312 | 52.25397 | 38880 ft | 452 kts | 140° |
| 2026-05-04 16:48 | 42.93336 | 52.37486 | 38882 ft | 453 kts | 140° |
| 2026-05-04 16:49 | 42.84324 | 52.49571 | 38885 ft | 455 kts | 140° |
| 2026-05-04 16:50 | 42.75300 | 52.61619 | 38885 ft | 456 kts | 140° |
| 2026-05-04 16:51 | 42.68487 | 52.70681 | 38889 ft | 457 kts | 140° |
| 2026-05-04 16:52 | 42.60132 | 52.81754 | 38889 ft | 458 kts | 140° |
| 2026-05-04 16:53 | 42.53276 | 52.90808 | 38893 ft | 459 kts | 140° |
| 2026-05-04 16:54 | 42.44099 | 53.02882 | 38891 ft | 460 kts | 140° |
| 2026-05-04 16:55 | 42.30293 | 53.20950 | 38881 ft | 461 kts | 140° |
| 2026-05-04 16:56 | 42.20070 | 53.37580 | 38870 ft | 468 kts | 127° |
| 2026-05-04 16:57 | 42.14711 | 53.48646 | 38871 ft | 470 kts | 127° |
| 2026-05-04 16:58 | 42.07566 | 53.63395 | 38872 ft | 471 kts | 127° |
| 2026-05-04 17:00 | 41.96783 | 53.85519 | 38873 ft | 472 kts | 127° |
| 2026-05-04 17:01 | 41.87768 | 54.03890 | 38872 ft | 472 kts | 127° |
| 2026-05-04 17:02 | 41.80511 | 54.18600 | 38870 ft | 473 kts | 127° |
| 2026-05-04 17:03 | 41.75054 | 54.29614 | 38870 ft | 473 kts | 127° |
| 2026-05-04 17:03 | 41.69588 | 54.40606 | 38868 ft | 473 kts | 127° |
| 2026-05-04 17:04 | 41.62270 | 54.55260 | 38870 ft | 473 kts | 127° |
| 2026-05-04 17:05 | 41.54963 | 54.69821 | 38858 ft | 474 kts | 127° |
| 2026-05-04 17:06 | 41.49444 | 54.80775 | 38852 ft | 474 kts | 127° |
| 2026-05-04 17:07 | 41.44532 | 54.90491 | 38856 ft | 475 kts | 128° |
| 2026-05-04 17:07 | 41.40206 | 54.99022 | 38855 ft | 475 kts | 128° |
| 2026-05-04 17:08 | 41.34661 | 55.09922 | 38855 ft | 476 kts | 128° |
| 2026-05-04 17:09 | 41.30935 | 55.17226 | 38855 ft | 477 kts | 128° |
| 2026-05-04 17:09 | 41.27203 | 55.24522 | 38851 ft | 477 kts | 128° |
| 2026-05-04 17:10 | 41.17834 | 55.42765 | 38852 ft | 478 kts | 128° |
| 2026-05-04 17:11 | 41.14079 | 55.50046 | 38849 ft | 478 kts | 128° |
| 2026-05-04 17:12 | 41.08452 | 55.60930 | 38848 ft | 479 kts | 128° |
| 2026-05-04 17:13 | 40.98990 | 55.79133 | 38853 ft | 480 kts | 128° |
| 2026-05-04 17:14 | 40.91379 | 55.93673 | 38849 ft | 481 kts | 128° |
| 2026-05-04 17:15 | 40.85669 | 56.04542 | 38851 ft | 482 kts | 128° |
| 2026-05-04 17:16 | 40.78001 | 56.19078 | 38856 ft | 483 kts | 128° |
| 2026-05-04 17:17 | 40.70304 | 56.33601 | 38858 ft | 483 kts | 128° |
| 2026-05-04 17:18 | 40.62600 | 56.48070 | 38861 ft | 483 kts | 128° |
| 2026-05-04 17:19 | 40.54855 | 56.62549 | 38865 ft | 484 kts | 128° |
| 2026-05-04 17:20 | 40.47095 | 56.76995 | 38871 ft | 484 kts | 129° |
| 2026-05-04 17:20 | 40.41254 | 56.87829 | 38864 ft | 484 kts | 129° |
| 2026-05-04 17:21 | 40.33465 | 57.02217 | 38871 ft | 485 kts | 129° |
| 2026-05-04 17:22 | 40.29553 | 57.09420 | 38874 ft | 486 kts | 129° |
| 2026-05-04 17:23 | 40.21996 | 57.24087 | 38868 ft | 489 kts | 115° |
| 2026-05-04 17:24 | 40.17775 | 57.36291 | 38878 ft | 491 kts | 117° |
| 2026-05-04 17:25 | 40.12122 | 57.52502 | 38878 ft | 491 kts | 116° |
| 2026-05-04 17:26 | 40.06434 | 57.68725 | 38886 ft | 491 kts | 117° |
| 2026-05-04 17:27 | 39.99304 | 57.88935 | 38878 ft | 490 kts | 117° |
| 2026-05-04 17:28 | 39.93581 | 58.05053 | 38876 ft | 490 kts | 117° |
| 2026-05-04 17:29 | 39.84826 | 58.29074 | 38883 ft | 489 kts | 117° |
| 2026-05-04 17:31 | 39.77435 | 58.48968 | 38874 ft | 489 kts | 117° |
| 2026-05-04 17:32 | 39.69989 | 58.68878 | 38872 ft | 489 kts | 117° |
| 2026-05-04 17:33 | 39.64031 | 58.84712 | 38874 ft | 489 kts | 118° |
| 2026-05-04 17:34 | 39.58036 | 59.00560 | 38872 ft | 489 kts | 118° |
| 2026-05-04 17:35 | 39.50568 | 59.20370 | 38876 ft | 489 kts | 117° |
| 2026-05-04 17:36 | 39.47584 | 59.28292 | 38873 ft | 489 kts | 117° |
| 2026-05-04 17:36 | 39.44615 | 59.36153 | 38876 ft | 489 kts | 117° |
| 2026-05-04 17:37 | 39.41620 | 59.44061 | 38883 ft | 489 kts | 118° |
| 2026-05-04 17:37 | 39.38618 | 59.51967 | 38884 ft | 489 kts | 118° |
| 2026-05-04 17:38 | 39.35613 | 59.59862 | 38887 ft | 489 kts | 118° |
| 2026-05-04 17:38 | 39.32597 | 59.67761 | 38886 ft | 490 kts | 118° |
| 2026-05-04 17:39 | 39.28072 | 59.79579 | 38890 ft | 490 kts | 118° |
| 2026-05-04 17:39 | 39.25063 | 59.87412 | 38890 ft | 490 kts | 118° |
| 2026-05-04 17:40 | 39.22517 | 59.94023 | 38890 ft | 490 kts | 118° |
| 2026-05-04 17:40 | 39.19502 | 60.01831 | 38894 ft | 490 kts | 118° |
| 2026-05-04 17:41 | 39.16457 | 60.09700 | 38896 ft | 490 kts | 118° |
| 2026-05-04 17:41 | 39.13411 | 60.17548 | 38896 ft | 490 kts | 118° |
| 2026-05-04 17:42 | 39.10356 | 60.25402 | 38895 ft | 490 kts | 118° |
| 2026-05-04 17:42 | 39.07293 | 60.33252 | 38897 ft | 490 kts | 118° |
| 2026-05-04 17:43 | 39.04230 | 60.41084 | 38896 ft | 490 kts | 118° |
| 2026-05-04 17:43 | 39.01159 | 60.48917 | 38903 ft | 490 kts | 118° |
| 2026-05-04 17:44 | 38.98079 | 60.56752 | 38899 ft | 490 kts | 118° |
| 2026-05-04 17:44 | 38.94999 | 60.64569 | 38903 ft | 490 kts | 118° |
| 2026-05-04 17:45 | 38.91929 | 60.72339 | 38902 ft | 491 kts | 118° |
| 2026-05-04 17:45 | 38.88833 | 60.80154 | 38906 ft | 491 kts | 118° |
| 2026-05-04 17:46 | 38.85728 | 60.87971 | 38905 ft | 491 kts | 118° |
| 2026-05-04 17:46 | 38.82620 | 60.95779 | 38910 ft | 492 kts | 118° |
| 2026-05-04 17:47 | 38.79504 | 61.03585 | 38907 ft | 492 kts | 118° |
| 2026-05-04 17:47 | 38.76378 | 61.11395 | 38912 ft | 492 kts | 119° |
| 2026-05-04 17:48 | 38.73246 | 61.19206 | 38911 ft | 493 kts | 118° |
| 2026-05-04 17:48 | 38.70103 | 61.27026 | 38916 ft | 493 kts | 119° |
| 2026-05-04 17:49 | 38.66958 | 61.34831 | 38917 ft | 493 kts | 119° |
| 2026-05-04 17:49 | 38.63537 | 61.42356 | 38926 ft | 492 kts | 123° |
| 2026-05-04 17:50 | 38.59963 | 61.49848 | 38916 ft | 493 kts | 123° |
| 2026-05-04 17:50 | 38.56412 | 61.57347 | 38921 ft | 494 kts | 123° |
| 2026-05-04 17:51 | 38.52849 | 61.64858 | 38919 ft | 494 kts | 123° |
| 2026-05-04 17:51 | 38.49278 | 61.72369 | 38917 ft | 494 kts | 123° |
| 2026-05-04 17:52 | 38.45700 | 61.79875 | 38919 ft | 494 kts | 123° |
| 2026-05-04 17:52 | 38.42128 | 61.87354 | 38923 ft | 494 kts | 123° |
| 2026-05-04 17:53 | 38.38539 | 61.94847 | 38923 ft | 494 kts | 123° |
| 2026-05-04 17:53 | 38.34970 | 62.02285 | 38911 ft | 495 kts | 123° |
| 2026-05-04 17:54 | 38.31370 | 62.09770 | 38911 ft | 495 kts | 123° |
| 2026-05-04 17:54 | 38.27769 | 62.17238 | 38910 ft | 495 kts | 123° |
| 2026-05-04 17:55 | 38.24158 | 62.24711 | 38922 ft | 496 kts | 123° |
| 2026-05-04 17:55 | 38.20536 | 62.32189 | 38921 ft | 496 kts | 123° |
| 2026-05-04 17:56 | 38.16907 | 62.39665 | 38907 ft | 496 kts | 123° |
| 2026-05-04 17:56 | 38.13275 | 62.47132 | 38905 ft | 497 kts | 123° |
| 2026-05-04 17:57 | 38.09620 | 62.54590 | 38918 ft | 497 kts | 123° |
| 2026-05-04 17:57 | 38.05962 | 62.62046 | 38914 ft | 498 kts | 123° |
| 2026-05-04 17:58 | 38.02316 | 62.69458 | 38922 ft | 498 kts | 123° |
| 2026-05-04 17:58 | 37.98643 | 62.76909 | 38921 ft | 498 kts | 123° |
| 2026-05-04 17:59 | 37.94967 | 62.84349 | 38920 ft | 498 kts | 123° |
| 2026-05-04 18:00 | 37.89445 | 62.95495 | 38922 ft | 498 kts | 123° |
| 2026-05-04 18:00 | 37.85747 | 63.02937 | 38919 ft | 499 kts | 123° |
| 2026-05-04 18:01 | 37.82048 | 63.10364 | 38926 ft | 499 kts | 123° |
| 2026-05-04 18:01 | 37.78342 | 63.17788 | 38927 ft | 499 kts | 123° |
| 2026-05-04 18:02 | 37.72776 | 63.28909 | 38931 ft | 500 kts | 123° |
| 2026-05-04 18:02 | 37.69071 | 63.36296 | 38933 ft | 500 kts | 123° |
| 2026-05-04 18:03 | 37.65352 | 63.43711 | 38929 ft | 500 kts | 123° |
| 2026-05-04 18:03 | 37.61627 | 63.51125 | 38933 ft | 500 kts | 123° |
| 2026-05-04 18:04 | 37.57894 | 63.58536 | 38932 ft | 500 kts | 123° |
| 2026-05-04 18:05 | 37.52282 | 63.69646 | 38936 ft | 501 kts | 123° |
| 2026-05-04 18:05 | 37.48538 | 63.77039 | 38937 ft | 501 kts | 124° |
| 2026-05-04 18:06 | 37.42907 | 63.88125 | 38939 ft | 501 kts | 124° |
| 2026-05-04 18:06 | 37.39166 | 63.95469 | 38940 ft | 502 kts | 124° |
| 2026-05-04 18:07 | 37.35395 | 64.02847 | 38942 ft | 502 kts | 124° |
| 2026-05-04 18:07 | 37.31613 | 64.10217 | 38945 ft | 502 kts | 124° |
| 2026-05-04 18:08 | 37.27821 | 64.17591 | 38946 ft | 502 kts | 124° |
| 2026-05-04 18:08 | 37.24027 | 64.24954 | 38949 ft | 503 kts | 124° |
| 2026-05-04 18:09 | 37.16411 | 64.39683 | 38956 ft | 503 kts | 124° |
| 2026-05-04 18:10 | 37.12593 | 64.47043 | 38956 ft | 503 kts | 124° |
| 2026-05-04 18:10 | 37.08769 | 64.54398 | 38960 ft | 503 kts | 124° |
| 2026-05-04 18:11 | 37.04962 | 64.61704 | 38962 ft | 504 kts | 124° |
| 2026-05-04 18:11 | 37.01131 | 64.69040 | 38964 ft | 504 kts | 124° |
| 2026-05-04 18:12 | 36.97287 | 64.76388 | 38963 ft | 504 kts | 124° |
| 2026-05-04 18:12 | 36.93432 | 64.83709 | 38963 ft | 504 kts | 124° |
| 2026-05-04 18:13 | 36.89573 | 64.91022 | 38965 ft | 504 kts | 124° |
| 2026-05-04 18:14 | 36.83758 | 65.02011 | 38967 ft | 505 kts | 124° |
| 2026-05-04 18:14 | 36.79907 | 65.09271 | 38964 ft | 505 kts | 124° |
| 2026-05-04 18:15 | 36.72133 | 65.23875 | 38971 ft | 505 kts | 124° |
| 2026-05-04 18:16 | 36.68245 | 65.31157 | 38973 ft | 505 kts | 124° |
| 2026-05-04 18:16 | 36.64346 | 65.38442 | 38977 ft | 505 kts | 124° |
| 2026-05-04 18:17 | 36.58515 | 65.49310 | 38984 ft | 505 kts | 124° |
| 2026-05-04 18:18 | 36.52643 | 65.60218 | 38990 ft | 506 kts | 124° |
| 2026-05-04 18:18 | 36.48725 | 65.67477 | 38988 ft | 505 kts | 124° |
| 2026-05-04 18:19 | 36.42843 | 65.78346 | 38997 ft | 506 kts | 124° |
| 2026-05-04 18:19 | 36.38916 | 65.85584 | 39006 ft | 505 kts | 124° |
| 2026-05-04 18:20 | 36.34978 | 65.92826 | 39010 ft | 506 kts | 124° |
| 2026-05-04 18:20 | 36.31061 | 66.00013 | 39017 ft | 506 kts | 124° |
| 2026-05-04 18:21 | 36.27117 | 66.07239 | 39024 ft | 506 kts | 124° |
| 2026-05-04 18:21 | 36.23167 | 66.14461 | 39034 ft | 506 kts | 124° |
| 2026-05-04 18:22 | 36.19205 | 66.21670 | 39044 ft | 506 kts | 125° |
| 2026-05-04 18:22 | 36.15244 | 66.28867 | 39044 ft | 505 kts | 125° |
| 2026-05-04 18:23 | 36.11280 | 66.36054 | 39054 ft | 506 kts | 125° |
| 2026-05-04 18:23 | 36.07310 | 66.43237 | 39059 ft | 505 kts | 125° |
| 2026-05-04 18:24 | 36.03344 | 66.50399 | 39065 ft | 505 kts | 125° |
| 2026-05-04 18:24 | 35.99390 | 66.57524 | 39067 ft | 505 kts | 125° |
| 2026-05-04 18:25 | 35.95413 | 66.64676 | 39077 ft | 505 kts | 125° |
| 2026-05-04 18:25 | 35.91430 | 66.71822 | 39086 ft | 505 kts | 125° |
| 2026-05-04 18:26 | 35.87443 | 66.78963 | 39086 ft | 505 kts | 125° |
| 2026-05-04 18:26 | 35.84099 | 66.84940 | 39063 ft | 506 kts | 125° |
| 2026-05-04 18:27 | 35.79462 | 66.93228 | 39111 ft | 506 kts | 125° |
| 2026-05-04 18:27 | 35.76151 | 66.99164 | 39117 ft | 505 kts | 125° |
| 2026-05-04 18:28 | 35.72163 | 67.06297 | 39115 ft | 505 kts | 124° |
| 2026-05-04 18:28 | 35.68175 | 67.13417 | 39150 ft | 505 kts | 125° |
| 2026-05-04 18:29 | 35.64189 | 67.20519 | 39147 ft | 504 kts | 125° |
| 2026-05-04 18:29 | 35.60194 | 67.27621 | 39146 ft | 504 kts | 124° |
| 2026-05-04 18:30 | 35.54197 | 67.38257 | 39161 ft | 504 kts | 125° |
| 2026-05-04 18:31 | 35.50202 | 67.45323 | 39160 ft | 504 kts | 126° |
| 2026-05-04 18:31 | 35.46206 | 67.52378 | 39168 ft | 503 kts | 125° |
| 2026-05-04 18:32 | 35.42231 | 67.59381 | 39176 ft | 504 kts | 125° |
| 2026-05-04 18:32 | 35.38219 | 67.66433 | 39170 ft | 504 kts | 125° |
| 2026-05-04 18:33 | 35.34210 | 67.73468 | 39163 ft | 503 kts | 126° |
| 2026-05-04 18:33 | 35.30197 | 67.80500 | 39165 ft | 505 kts | 125° |
| 2026-05-04 18:34 | 35.26215 | 67.87586 | 39174 ft | 505 kts | 125° |
| 2026-05-04 18:34 | 35.22227 | 67.94677 | 39166 ft | 505 kts | 125° |
| 2026-05-04 18:35 | 35.18239 | 68.01752 | 39169 ft | 505 kts | 125° |
| 2026-05-04 18:35 | 35.14270 | 68.08779 | 39167 ft | 505 kts | 125° |
| 2026-05-04 18:36 | 35.10281 | 68.15828 | 39186 ft | 506 kts | 125° |
| 2026-05-04 18:36 | 35.06274 | 68.22897 | 39175 ft | 505 kts | 125° |
| 2026-05-04 18:37 | 35.02184 | 68.29882 | 39154 ft | 505 kts | 126° |
| 2026-05-04 18:37 | 34.98088 | 68.36856 | 39169 ft | 506 kts | 126° |
| 2026-05-04 18:38 | 34.93987 | 68.43830 | 39173 ft | 506 kts | 126° |
| 2026-05-04 18:38 | 34.89876 | 68.50805 | 39158 ft | 506 kts | 126° |
| 2026-05-04 18:39 | 34.85761 | 68.57776 | 39142 ft | 507 kts | 126° |
| 2026-05-04 18:39 | 34.81667 | 68.64696 | 39123 ft | 506 kts | 126° |
| 2026-05-04 18:40 | 34.77547 | 68.71647 | 39099 ft | 507 kts | 126° |
| 2026-05-04 18:40 | 34.73419 | 68.78599 | 39089 ft | 507 kts | 126° |
| 2026-05-04 18:41 | 34.69282 | 68.85551 | 39065 ft | 506 kts | 127° |
| 2026-05-04 18:41 | 34.65149 | 68.92482 | 39049 ft | 506 kts | 127° |
| 2026-05-04 18:42 | 34.61008 | 68.99414 | 39040 ft | 506 kts | 127° |
| 2026-05-04 18:42 | 34.56911 | 69.06260 | 39021 ft | 504 kts | 127° |
| 2026-05-04 18:43 | 34.52786 | 69.13140 | 39009 ft | 504 kts | 127° |
| 2026-05-04 18:43 | 34.50925 | 69.16727 | 39004 ft | 503 kts | 116° |
| 2026-05-04 18:43 | 34.49352 | 69.20512 | 39012 ft | 503 kts | 117° |
| 2026-05-04 18:44 | 34.46153 | 69.28034 | 39007 ft | 502 kts | 117° |
| 2026-05-04 18:44 | 34.42958 | 69.35558 | 39003 ft | 501 kts | 117° |
| 2026-05-04 18:45 | 34.39763 | 69.43070 | 39014 ft | 501 kts | 117° |
| 2026-05-04 18:45 | 34.36567 | 69.50568 | 39013 ft | 501 kts | 117° |
| 2026-05-04 18:46 | 34.33370 | 69.58053 | 39020 ft | 501 kts | 117° |
| 2026-05-04 18:46 | 34.30166 | 69.65536 | 38993 ft | 500 kts | 117° |
| 2026-05-04 18:47 | 34.26958 | 69.73012 | 39030 ft | 501 kts | 117° |
| 2026-05-04 18:47 | 34.23743 | 69.80487 | 39024 ft | 501 kts | 118° |
| 2026-05-04 18:48 | 34.20523 | 69.87960 | 39011 ft | 501 kts | 118° |
| 2026-05-04 18:48 | 34.17309 | 69.95388 | 38977 ft | 502 kts | 118° |
| 2026-05-04 18:49 | 34.14047 | 70.02848 | 39023 ft | 503 kts | 118° |
| 2026-05-04 18:49 | 34.10773 | 70.10328 | 39017 ft | 503 kts | 118° |
| 2026-05-04 18:50 | 34.07497 | 70.17798 | 39029 ft | 505 kts | 118° |
| 2026-05-04 18:50 | 34.04211 | 70.25277 | 39011 ft | 504 kts | 118° |
| 2026-05-04 18:51 | 34.00920 | 70.32749 | 39009 ft | 505 kts | 118° |
| 2026-05-04 18:51 | 33.97623 | 70.40217 | 39014 ft | 505 kts | 118° |
| 2026-05-04 18:52 | 33.94312 | 70.47670 | 39018 ft | 504 kts | 121° |
| 2026-05-04 18:52 | 33.92246 | 70.50988 | 38964 ft | 498 kts | 138° |
| 2026-05-04 18:52 | 33.89751 | 70.53879 | 39014 ft | 499 kts | 138° |
| 2026-05-04 18:53 | 33.84741 | 70.59708 | 38997 ft | 502 kts | 139° |
| 2026-05-04 18:53 | 33.79660 | 70.65495 | 39002 ft | 502 kts | 139° |
| 2026-05-04 18:54 | 33.74581 | 70.71255 | 39003 ft | 502 kts | 139° |
| 2026-05-04 18:54 | 33.69495 | 70.77013 | 38993 ft | 502 kts | 139° |
| 2026-05-04 18:55 | 33.64401 | 70.82769 | 38980 ft | 503 kts | 139° |
| 2026-05-04 18:55 | 33.56790 | 70.91352 | 38968 ft | 502 kts | 139° |
| 2026-05-04 18:56 | 33.51930 | 70.97377 | 38939 ft | 504 kts | 124° |
| 2026-05-04 18:56 | 33.50299 | 71.01085 | 38950 ft | 504 kts | 110° |
| 2026-05-04 18:56 | 33.49372 | 71.05126 | 38939 ft | 504 kts | 95° |
| 2026-05-04 18:57 | 33.49272 | 71.09296 | 38951 ft | 500 kts | 83° |
| 2026-05-04 18:57 | 33.49485 | 71.13462 | 38934 ft | 503 kts | 84° |
| 2026-05-04 18:57 | 33.49957 | 71.21827 | 38945 ft | 503 kts | 83° |
| 2026-05-04 18:58 | 33.50479 | 71.30198 | 38928 ft | 503 kts | 83° |
| 2026-05-04 18:58 | 33.51001 | 71.38562 | 38925 ft | 503 kts | 83° |
| 2026-05-04 18:59 | 33.51516 | 71.46889 | 38916 ft | 504 kts | 83° |
| 2026-05-04 18:59 | 33.52027 | 71.55260 | 38911 ft | 504 kts | 83° |
| 2026-05-04 19:00 | 33.52534 | 71.63661 | 38914 ft | 505 kts | 83° |
| 2026-05-04 19:00 | 33.53036 | 71.72049 | 38907 ft | 505 kts | 83° |
| 2026-05-04 19:01 | 33.53495 | 71.80468 | 38894 ft | 507 kts | 88° |
| 2026-05-04 19:01 | 33.53131 | 71.84674 | 38896 ft | 509 kts | 102° |
| 2026-05-04 19:01 | 33.51953 | 71.88667 | 38884 ft | 509 kts | 119° |
| 2026-05-04 19:02 | 33.48245 | 71.95924 | 38892 ft | 512 kts | 123° |
| 2026-05-04 19:02 | 33.44432 | 72.03076 | 38899 ft | 513 kts | 124° |
| 2026-05-04 19:03 | 33.40565 | 72.10242 | 38891 ft | 512 kts | 124° |
| 2026-05-04 19:03 | 33.36667 | 72.17448 | 38891 ft | 512 kts | 124° |
| 2026-05-04 19:04 | 33.32822 | 72.24542 | 38883 ft | 512 kts | 124° |
| 2026-05-04 19:04 | 33.28941 | 72.31686 | 38889 ft | 512 kts | 124° |
| 2026-05-04 19:05 | 33.25056 | 72.38825 | 38893 ft | 512 kts | 124° |
| 2026-05-04 19:05 | 33.21174 | 72.45945 | 38889 ft | 511 kts | 124° |
| 2026-05-04 19:06 | 33.17287 | 72.53060 | 38888 ft | 511 kts | 124° |
| 2026-05-04 19:06 | 33.13392 | 72.60175 | 38892 ft | 511 kts | 124° |
| 2026-05-04 19:07 | 33.09498 | 72.67278 | 38893 ft | 511 kts | 124° |
| 2026-05-04 19:07 | 33.05603 | 72.74368 | 38893 ft | 511 kts | 124° |
| 2026-05-04 19:08 | 33.01729 | 72.81404 | 38896 ft | 511 kts | 124° |
| 2026-05-04 19:08 | 32.97828 | 72.88477 | 38896 ft | 510 kts | 125° |
| 2026-05-04 19:09 | 32.93919 | 72.95549 | 38897 ft | 510 kts | 125° |
| 2026-05-04 19:09 | 32.90016 | 73.02600 | 38893 ft | 510 kts | 125° |
| 2026-05-04 19:10 | 32.86111 | 73.09639 | 38889 ft | 510 kts | 125° |
| 2026-05-04 19:10 | 32.82205 | 73.16671 | 38884 ft | 509 kts | 125° |
| 2026-05-04 19:11 | 32.80254 | 73.20178 | 38382 ft | 509 kts | 125° |
| 2026-05-04 19:11 | 32.78282 | 73.23716 | 37065 ft | 515 kts | 126° |
| 2026-05-04 19:11 | 32.76028 | 73.26941 | 36311 ft | 501 kts | 141° |
| 2026-05-04 19:11 | 32.73358 | 73.29514 | 35518 ft | 492 kts | 144° |
| 2026-05-04 19:12 | 32.70675 | 73.32042 | 34538 ft | 491 kts | 144° |
| 2026-05-04 19:12 | 32.65335 | 73.36974 | 32406 ft | 489 kts | 144° |
| 2026-05-04 19:12 | 32.62640 | 73.39437 | 31250 ft | 489 kts | 144° |
| 2026-05-04 19:13 | 32.59954 | 73.41888 | 30401 ft | 483 kts | 144° |
| 2026-05-04 19:13 | 32.57323 | 73.44287 | 29662 ft | 474 kts | 144° |
| 2026-05-04 19:13 | 32.54672 | 73.46701 | 28698 ft | 485 kts | 144° |
| 2026-05-04 19:13 | 32.51975 | 73.49156 | 27777 ft | 492 kts | 144° |
| 2026-05-04 19:14 | 32.49247 | 73.51637 | 26882 ft | 495 kts | 144° |
| 2026-05-04 19:14 | 32.46507 | 73.54127 | 25964 ft | 499 kts | 143° |
| 2026-05-04 19:14 | 32.43741 | 73.56638 | 25195 ft | 502 kts | 143° |
| 2026-05-04 19:14 | 32.40970 | 73.59152 | 24460 ft | 501 kts | 143° |
| 2026-05-04 19:15 | 32.38214 | 73.61650 | 23741 ft | 497 kts | 143° |
| 2026-05-04 19:15 | 32.36399 | 73.63295 | 23217 ft | 493 kts | 143° |
| 2026-05-04 19:15 | 32.32785 | 73.66565 | 22135 ft | 485 kts | 143° |
| 2026-05-04 19:15 | 32.30121 | 73.68975 | 21417 ft | 479 kts | 143° |
| 2026-05-04 19:16 | 32.28375 | 73.70553 | 20950 ft | 475 kts | 143° |
| 2026-05-04 19:16 | 32.25764 | 73.72911 | 20238 ft | 468 kts | 143° |
| 2026-05-04 19:16 | 32.22359 | 73.75984 | 19325 ft | 461 kts | 143° |
| 2026-05-04 19:16 | 32.20647 | 73.77528 | 18857 ft | 457 kts | 143° |
| 2026-05-04 19:17 | 32.18141 | 73.79787 | 18183 ft | 451 kts | 143° |
| 2026-05-04 19:17 | 32.15689 | 73.81996 | 17440 ft | 445 kts | 144° |
| 2026-05-04 19:17 | 32.13244 | 73.84196 | 16757 ft | 440 kts | 143° |
| 2026-05-04 19:17 | 32.10827 | 73.86370 | 16106 ft | 434 kts | 143° |
| 2026-05-04 19:18 | 32.08440 | 73.88516 | 15463 ft | 429 kts | 143° |
| 2026-05-04 19:18 | 32.06080 | 73.90636 | 14838 ft | 424 kts | 143° |
| 2026-05-04 19:18 | 32.03747 | 73.92730 | 14216 ft | 419 kts | 143° |
| 2026-05-04 19:18 | 32.01443 | 73.94796 | 13602 ft | 414 kts | 143° |
| 2026-05-04 19:19 | 31.99166 | 73.96839 | 12935 ft | 409 kts | 143° |
| 2026-05-04 19:19 | 31.96912 | 73.98858 | 12327 ft | 405 kts | 143° |
| 2026-05-04 19:19 | 31.94683 | 74.00853 | 11870 ft | 397 kts | 143° |
| 2026-05-04 19:19 | 31.92554 | 74.02758 | 11680 ft | 372 kts | 143° |
| 2026-05-04 19:20 | 31.90556 | 74.04546 | 11517 ft | 350 kts | 144° |
| 2026-05-04 19:20 | 31.88671 | 74.06231 | 11328 ft | 330 kts | 143° |
| 2026-05-04 19:20 | 31.86890 | 74.07823 | 11169 ft | 312 kts | 144° |
| 2026-05-04 19:20 | 31.85207 | 74.09314 | 11003 ft | 295 kts | 147° |